Time;durP1;ratioP1;P1;durP2;ratioP2;P2;SDS_P1;SDS_P2;PMS_P1;PMS_P2;Temp;Humidity;BMP_temperature;BMP_pressure;BME280_temperature;BME280_humidity;BME280_pressure;Samples;Min_cycle;Max_cycle;Signal;HPM_P1;HPM_P2
2022/03/25 00:00:01;;;;;;;23.00;12.50;;;;;;;9.37;100.00;102492.78;5067343;28;20064;-94
2022/03/25 00:02:27;;;;;;;24.52;13.55;;;;;;;9.26;100.00;102476.25;5067939;28;20159;-95
2022/03/25 00:04:55;;;;;;;26.98;13.13;;;;;;;9.40;100.00;102482.31;5078482;28;20052;-95
2022/03/25 00:07:22;;;;;;;22.35;11.73;;;;;;;9.13;100.00;102486.75;5076081;28;20045;-94
2022/03/25 00:09:48;;;;;;;23.50;11.95;;;;;;;9.11;100.00;102479.81;5076087;28;20409;-95
2022/03/25 00:12:15;;;;;;;20.98;12.35;;;;;;;9.14;100.00;102490.28;5077171;28;20474;-94
2022/03/25 00:14:42;;;;;;;18.50;10.10;;;;;;;9.29;100.00;102492.81;5078263;28;20032;-94
2022/03/25 00:17:09;;;;;;;19.67;10.50;;;;;;;9.01;100.00;102488.56;5077451;28;20520;-94
2022/03/25 00:19:36;;;;;;;17.23;9.77;;;;;;;9.15;100.00;102493.75;5077604;28;20056;-95
2022/03/25 00:22:03;;;;;;;19.73;9.90;;;;;;;8.77;100.00;102460.78;5075181;28;20045;-94
2022/03/25 00:24:30;;;;;;;19.00;11.23;;;;;;;8.75;100.00;102445.09;5076564;28;20218;-94
2022/03/25 00:26:57;;;;;;;22.90;11.77;;;;;;;8.69;100.00;102466.00;5076914;28;20127;-95
2022/03/25 00:29:24;;;;;;;19.65;10.70;;;;;;;9.06;100.00;102502.47;5076683;28;20384;-94
2022/03/25 00:31:51;;;;;;;21.02;9.68;;;;;;;8.73;100.00;102472.97;5076709;28;20047;-93
2022/03/25 00:34:18;;;;;;;19.92;10.05;;;;;;;9.06;100.00;102520.78;5077022;28;20059;-94
2022/03/25 00:36:45;;;;;;;20.27;11.63;;;;;;;8.70;100.00;102463.38;5076547;28;20559;-94
2022/03/25 00:39:12;;;;;;;19.20;11.50;;;;;;;9.03;100.00;102512.94;5076507;28;20402;-94
2022/03/25 00:41:41;;;;;;;23.67;11.48;;;;;;;8.97;100.00;102492.91;5076489;28;20047;-94
2022/03/25 00:44:08;;;;;;;22.23;11.65;;;;;;;9.01;100.00;102505.13;5077097;28;20394;-94
2022/03/25 00:46:34;;;;;;;22.05;12.07;;;;;;;8.57;100.00;102435.59;5076725;28;20048;-94
2022/03/25 00:49:04;;;;;;;31.25;9.15;;;;;;;9.37;100.00;102508.47;5077238;28;20504;-94
2022/03/25 00:51:30;;;;;;;24.70;11.23;;;;;;;8.96;100.00;102466.78;5076775;28;20136;-95
2022/03/25 00:53:58;;;;;;;22.77;12.30;;;;;;;9.20;100.00;102513.75;5076671;28;20044;-94
2022/03/25 00:56:24;;;;;;;17.90;10.48;;;;;;;9.11;100.00;102470.22;5076949;28;20048;-95
2022/03/25 00:58:52;;;;;;;19.92;9.65;;;;;;;9.05;100.00;102451.13;5076538;28;20083;-95
2022/03/25 01:01:18;;;;;;;17.08;9.20;;;;;;;9.08;100.00;102454.59;5073083;28;20057;-95
2022/03/25 01:03:45;;;;;;;19.52;10.32;;;;;;;9.17;100.00;102471.06;5076297;28;20036;-94
2022/03/25 01:06:12;;;;;;;17.98;10.48;;;;;;;8.90;100.00;102433.72;5077198;28;20088;-95
2022/03/25 01:08:39;;;;;;;20.38;11.98;;;;;;;9.09;100.00;102469.38;5063999;28;20135;-94
2022/03/25 01:11:06;;;;;;;17.70;9.60;;;;;;;9.41;100.00;102498.88;5056041;28;20055;-94
2022/03/25 01:13:33;;;;;;;17.27;10.18;;;;;;;9.39;100.00;102508.47;5071002;28;20063;-94
2022/03/25 01:16:06;;;;;;;20.05;11.02;;;;;;;9.36;100.00;102524.16;5056258;28;20543;-94
2022/03/25 01:18:33;;;;;;;20.73;12.00;;;;;;;9.10;100.00;102491.13;5075155;28;20131;-94
2022/03/25 01:21:00;;;;;;;17.50;9.20;;;;;;;9.19;100.00;102512.03;5076853;28;20408;-94
2022/03/25 01:23:27;;;;;;;15.35;8.43;;;;;;;9.37;100.00;102518.06;5077077;28;20696;-94
2022/03/25 01:25:54;;;;;;;15.90;9.18;;;;;;;9.24;100.00;102501.53;5076295;28;20066;-94
2022/03/25 01:28:21;;;;;;;17.40;9.43;;;;;;;9.18;100.00;102488.50;5076729;28;20250;-93
2022/03/25 01:30:48;;;;;;;19.35;9.55;;;;;;;8.92;100.00;102445.94;5072975;28;20476;-94
2022/03/25 01:33:15;;;;;;;19.75;10.27;;;;;;;9.10;100.00;102493.75;5087820;28;20482;-95
2022/03/25 01:35:42;;;;;;;17.48;9.75;;;;;;;9.14;100.00;102511.19;5075534;28;20044;-94
2022/03/25 01:38:09;;;;;;;14.90;8.13;;;;;;;8.71;100.00;102452.09;5074396;28;20062;-94
2022/03/25 01:40:37;;;;;;;16.23;9.65;;;;;;;8.68;100.00;102482.56;5075486;28;20075;-95
2022/03/25 01:43:06;;;;;;;20.55;8.65;;;;;;;8.73;100.00;102479.06;5072557;28;20067;-95
2022/03/25 01:45:36;;;;;;;17.83;9.35;;;;;;;8.84;100.00;102486.00;5056368;28;20057;-95
2022/03/25 01:48:12;;;;;;;19.75;9.60;;;;;;;9.03;100.00;102511.22;5056089;28;20072;-94
2022/03/25 01:50:41;;;;;;;15.25;8.35;;;;;;;9.00;100.00;102499.91;5056410;28;20510;-94
2022/03/25 01:53:15;;;;;;;16.10;8.13;;;;;;;8.83;100.00;102479.88;5057634;28;20041;-95
2022/03/25 01:56:02;;;;;;;14.63;7.57;;;;;;;9.13;100.00;102512.03;5072756;28;20139;-95
2022/03/25 01:58:31;;;;;;;17.42;8.05;;;;;;;8.99;100.00;102500.75;5076054;28;20148;-94
2022/03/25 02:00:59;;;;;;;15.80;8.20;;;;;;;8.84;100.00;102468.59;5075260;28;20056;-94
2022/03/25 02:03:26;;;;;;;15.27;8.45;;;;;;;8.67;100.00;102442.50;5074265;28;20045;-94
2022/03/25 02:05:53;;;;;;;13.50;6.63;;;;;;;8.92;100.00;102468.56;5075167;28;20143;-94
2022/03/25 02:08:20;;;;;;;16.55;7.63;;;;;;;8.85;100.00;102479.88;5074376;28;20121;-93
2022/03/25 02:10:47;;;;;;;15.30;7.88;;;;;;;8.82;100.00;102478.16;5074285;28;20059;-94
2022/03/25 02:13:14;;;;;;;13.65;7.38;;;;;;;9.05;100.00;102511.22;5072705;28;20063;-93
2022/03/25 02:15:46;;;;;;;14.85;8.02;;;;;;;9.05;100.00;102503.38;5074676;28;20061;-94
2022/03/25 02:18:15;;;;;;;14.13;7.78;;;;;;;8.99;100.00;102487.69;5074615;28;20470;-94
2022/03/25 02:20:43;;;;;;;13.13;6.97;;;;;;;8.95;100.00;102491.19;5074107;28;20056;-93
2022/03/25 02:23:10;;;;;;;15.55;7.93;;;;;;;8.98;100.00;102489.44;5075626;28;20044;-93
2022/03/25 02:25:38;;;;;;;13.98;7.88;;;;;;;8.97;100.00;102500.75;5074757;28;20063;-93
2022/03/25 02:28:05;;;;;;;17.88;7.53;;;;;;;8.87;100.00;102480.75;5075070;28;20056;-93
2022/03/25 02:30:34;;;;;;;13.90;7.35;;;;;;;8.73;100.00;102466.00;5070044;28;20049;-92
2022/03/25 02:33:02;;;;;;;13.60;7.03;;;;;;;8.92;100.00;102497.28;5067198;28;20050;-94
2022/03/25 02:35:41;;;;;;;13.55;7.13;;;;;;;8.67;100.00;102471.22;5074031;28;20087;-93
2022/03/25 02:38:10;;;;;;;14.40;6.70;;;;;;;8.77;100.00;102505.19;5074230;28;20064;-92
2022/03/25 02:40:36;;;;;;;14.85;7.10;;;;;;;8.59;100.00;102491.28;5075208;28;20139;-93
2022/03/25 02:43:07;;;;;;;14.10;7.05;;;;;;;8.60;100.00;102490.38;5070129;28;20067;-94
2022/03/25 02:45:34;;;;;;;14.48;6.25;;;;;;;8.61;100.00;102493.88;5071619;28;20484;-92
2022/03/25 02:48:02;;;;;;;14.00;6.88;;;;;;;8.43;100.00;102498.25;5055903;28;20055;-93
2022/03/25 02:50:31;;;;;;;12.75;6.63;;;;;;;8.22;100.00;102493.00;5070906;28;20044;-93
2022/03/25 02:52:59;;;;;;;12.88;7.45;;;;;;;8.06;100.00;102484.28;5067991;28;20051;-93
2022/03/25 02:55:27;;;;;;;15.02;7.82;;;;;;;8.31;100.00;102493.00;5070641;28;20053;-93
2022/03/25 02:57:55;;;;;;;12.32;6.78;;;;;;;8.25;100.00;102498.19;5054070;28;20406;-94
2022/03/25 03:00:23;;;;;;;14.13;7.00;;;;;;;8.32;100.00;102507.75;5070770;28;20059;-92
2022/03/25 03:02:50;;;;;;;13.38;5.88;;;;;;;8.35;100.00;102494.72;5064606;28;20064;-93
2022/03/25 03:05:17;;;;;;;13.00;6.32;;;;;;;8.52;100.00;102506.06;5073456;28;20048;-93
2022/03/25 03:07:45;;;;;;;13.13;4.80;;;;;;;8.71;100.00;102503.41;5074784;28;20052;-94
2022/03/25 03:10:14;;;;;;;14.60;6.03;;;;;;;8.60;100.00;102506.03;5074670;28;20052;-94
2022/03/25 03:12:42;;;;;;;13.70;5.55;;;;;;;8.59;100.00;102517.38;5071407;28;20131;-93
2022/03/25 03:15:10;;;;;;;12.85;6.47;;;;;;;8.53;100.00;102502.59;5074648;28;20094;-94
2022/03/25 03:17:37;;;;;;;10.98;4.40;;;;;;;8.60;100.00;102524.31;5073674;28;20071;-94
2022/03/25 03:20:06;;;;;;;10.95;5.65;;;;;;;8.57;100.00;102515.63;5074488;28;20044;-94
2022/03/25 03:22:33;;;;;;;13.88;6.22;;;;;;;8.64;100.00;102520.88;5078361;28;20044;-95
2022/03/25 03:25:01;;;;;;;13.13;6.00;;;;;;;8.51;100.00;102506.06;5079218;28;20076;-94
2022/03/25 03:27:28;;;;;;;13.43;6.03;;;;;;;8.45;100.00;102513.91;5079565;28;20048;-95
2022/03/25 03:29:55;;;;;;;13.52;6.75;;;;;;;8.15;100.00;102494.72;5079134;28;20056;-94
2022/03/25 03:32:23;;;;;;;16.58;7.30;;;;;;;7.50;100.00;102449.41;5078523;28;20055;-95
2022/03/25 03:34:50;;;;;;;13.05;6.30;;;;;;;7.75;100.00;102465.97;5079056;28;20143;-95
2022/03/25 03:37:17;;;;;;;15.35;6.68;;;;;;;7.92;100.00;102520.78;5079165;28;20052;-95
2022/03/25 03:39:44;;;;;;;13.25;7.10;;;;;;;7.84;100.00;102525.97;5078912;28;20431;-95
2022/03/25 03:42:10;;;;;;;14.52;7.00;;;;;;;7.55;100.00;102494.63;5078373;28;20052;-94
2022/03/25 03:44:38;;;;;;;14.45;6.40;;;;;;;7.42;100.00;102475.47;5078381;28;20047;-95
2022/03/25 03:47:07;;;;;;;12.38;6.88;;;;;;;7.62;100.00;102506.81;5078554;28;20045;-95
2022/03/25 03:49:34;;;;;;;13.75;7.05;;;;;;;7.70;100.00;102531.16;5077907;28;20045;-95
2022/03/25 03:52:03;;;;;;;14.30;7.55;;;;;;;7.63;100.00;102525.91;5078448;28;20091;-95
2022/03/25 03:54:30;;;;;;;12.68;5.97;;;;;;;7.45;100.00;102487.63;5077979;28;20052;-94
2022/03/25 03:56:57;;;;;;;15.27;8.60;;;;;;;7.54;100.00;102534.56;5078314;28;20043;-93
2022/03/25 03:59:24;;;;;;;11.48;6.25;;;;;;;7.34;100.00;102506.69;5078632;28;20526;-95
2022/03/25 04:01:51;;;;;;;12.18;6.43;;;;;;;7.54;100.00;102542.38;5077032;28;20114;-95
2022/03/25 04:04:18;;;;;;;13.50;6.53;;;;;;;7.30;100.00;102532.75;5078058;28;20493;-95
2022/03/25 04:06:45;;;;;;;12.27;6.25;;;;;;;7.01;100.00;102483.94;5077643;28;20049;-95
2022/03/25 04:09:11;;;;;;;14.32;6.78;;;;;;;7.21;100.00;102516.19;5077686;28;20135;-95
2022/03/25 04:11:38;;;;;;;17.88;7.25;;;;;;;7.11;100.00;102500.50;5079270;28;20058;-95
2022/03/25 04:14:05;;;;;;;14.55;6.72;;;;;;;7.18;100.00;102525.72;5078157;28;20108;-95
2022/03/25 04:16:36;;;;;;;12.70;6.15;;;;;;;7.41;100.00;102546.69;5078536;28;20049;-95
2022/03/25 04:19:03;;;;;;;13.13;6.88;;;;;;;7.46;100.00;102563.22;5077466;28;20139;-94
2022/03/25 04:21:30;;;;;;;14.30;7.15;;;;;;;7.05;100.00;102488.34;5076478;28;20119;-94
2022/03/25 04:23:56;;;;;;;12.73;6.30;;;;;;;7.40;100.00;102565.78;5074135;28;20135;-95
2022/03/25 04:26:24;;;;;;;11.98;6.13;;;;;;;7.26;100.00;102550.09;5057678;28;20045;-95
2022/03/25 04:28:51;;;;;;;11.90;5.43;;;;;;;7.34;100.00;102551.00;5057288;28;20124;-94
2022/03/25 04:31:18;;;;;;;15.38;6.25;;;;;;;6.96;100.00;102493.50;5057675;28;20084;-95
2022/03/25 04:33:45;;;;;;;11.55;5.80;;;;;;;7.13;100.00;102519.63;5074960;28;20538;-95
2022/03/25 04:36:12;;;;;;;10.98;5.30;;;;;;;7.06;100.00;102531.72;5077452;28;20135;-95
2022/03/25 04:38:38;;;;;;;13.63;6.60;;;;;;;7.07;100.00;102530.03;5077310;28;20406;-95
2022/03/25 04:41:06;;;;;;;12.55;6.07;;;;;;;7.21;100.00;102552.66;5077036;28;20546;-95
2022/03/25 04:43:33;;;;;;;14.50;6.57;;;;;;;7.18;100.00;102554.38;5076108;28;20534;-95
2022/03/25 04:46:00;;;;;;;12.80;6.35;;;;;;;7.26;100.00;102562.22;5076457;28;20055;-95
2022/03/25 04:48:27;;;;;;;12.40;6.28;;;;;;;7.23;100.00;102545.72;5076819;28;20052;-95
2022/03/25 04:50:53;;;;;;;12.35;5.85;;;;;;;7.30;100.00;102564.00;5076662;28;20055;-94
2022/03/25 04:53:20;;;;;;;15.57;6.20;;;;;;;6.89;100.00;102513.41;5076978;28;20051;-95
2022/03/25 04:55:47;;;;;;;13.60;6.93;;;;;;;7.02;100.00;102525.63;5075188;28;20056;-95
2022/03/25 04:58:14;;;;;;;15.20;6.50;;;;;;;6.92;100.00;102526.44;5076464;28;20046;-95
2022/03/25 05:00:42;;;;;;;16.73;6.72;;;;;;;6.74;100.00;102521.97;5075638;28;20048;-95
2022/03/25 05:03:09;;;;;;;11.05;4.95;;;;;;;7.18;100.00;102559.59;5070558;28;20612;-95
2022/03/25 05:05:37;;;;;;;12.90;5.50;;;;;;;7.16;100.00;102590.84;5075997;28;20136;-94
2022/03/25 05:08:04;;;;;;;11.02;5.43;;;;;;;7.10;100.00;102554.34;5075834;28;20062;-95
2022/03/25 05:10:31;;;;;;;12.25;6.55;;;;;;;7.01;100.00;102554.28;5075323;28;20056;-95
2022/03/25 05:13:18;;;;;;;15.65;6.07;;;;;;;6.88;100.00;102562.88;5075922;28;20060;-95
2022/03/25 05:15:45;;;;;;;14.02;6.30;;;;;;;6.97;100.00;102571.63;5076235;28;20048;-95
2022/03/25 05:18:12;;;;;;;13.45;6.45;;;;;;;7.09;100.00;102598.63;5075118;28;20074;-95
2022/03/25 05:20:39;;;;;;;10.93;5.63;;;;;;;6.80;100.00;102562.84;5076378;28;20052;-95
2022/03/25 05:23:05;;;;;;;11.25;5.32;;;;;;;6.83;100.00;102576.75;5075916;28;20078;-95
2022/03/25 05:25:34;;;;;;;12.85;5.53;;;;;;;6.80;100.00;102587.13;5075369;28;20048;-95
2022/03/25 05:28:00;;;;;;;12.32;5.68;;;;;;;6.64;100.00;102580.94;5075406;28;20049;-95
2022/03/25 05:30:30;;;;;;;12.45;6.32;;;;;;;6.86;100.00;102616.69;5075542;28;20108;-94
2022/03/25 05:32:58;;;;;;;13.52;5.95;;;;;;;6.66;100.00;102578.34;5074359;28;20091;-96
2022/03/25 05:35:26;;;;;;;14.27;6.50;;;;;;;6.37;100.00;102549.47;5074865;28;20147;-94
2022/03/25 05:37:53;;;;;;;11.32;5.20;;;;;;;6.74;100.00;102628.72;5074694;28;20145;-94
2022/03/25 05:40:22;;;;;;;11.38;5.15;;;;;;;6.44;100.00;102553.84;5074835;28;20062;-94
2022/03/25 05:42:49;;;;;;;15.32;6.45;;;;;;;6.83;100.00;102628.81;5074402;28;20048;-95
2022/03/25 05:45:21;;;;;;;12.65;6.07;;;;;;;6.75;100.00;102629.63;5075602;28;20051;-95
2022/03/25 05:47:49;;;;;;;11.88;5.97;;;;;;;6.83;100.00;102644.44;5075668;28;20063;-95
2022/03/25 05:50:17;;;;;;;13.07;6.35;;;;;;;6.61;100.00;102624.28;5076270;28;20066;-95
2022/03/25 05:52:44;;;;;;;11.43;5.50;;;;;;;6.65;100.00;102639.06;5074609;28;20140;-94
2022/03/25 05:55:16;;;;;;;10.50;4.82;;;;;;;6.52;100.00;102634.63;5074343;28;20393;-94
2022/03/25 05:57:44;;;;;;;12.55;5.40;;;;;;;6.30;100.00;102643.91;5075817;28;20056;-96
2022/03/25 06:00:13;;;;;;;12.13;5.72;;;;;;;6.32;100.00;102630.09;5075799;28;20135;-93
2022/03/25 06:02:44;;;;;;;10.73;5.38;;;;;;;6.46;100.00;102638.00;5071999;28;20140;-95
2022/03/25 06:05:13;;;;;;;10.43;4.72;;;;;;;6.62;100.00;102621.69;5056246;28;20074;-95
2022/03/25 06:07:42;;;;;;;12.70;5.80;;;;;;;6.35;100.00;102622.28;5066557;28;20139;-94
2022/03/25 06:10:11;;;;;;;11.23;4.80;;;;;;;6.60;100.00;102636.41;5072680;28;20056;-94
2022/03/25 06:12:39;;;;;;;10.48;5.00;;;;;;;6.53;100.00;102636.34;5072741;28;20048;-93
2022/03/25 06:15:06;;;;;;;12.05;5.63;;;;;;;6.62;100.00;102646.84;5059971;28;20076;-93
2022/03/25 06:17:44;;;;;;;14.93;5.82;;;;;;;6.56;100.00;102637.25;5065734;28;20059;-93
2022/03/25 06:20:17;;;;;;;13.30;5.95;;;;;;;6.70;100.00;102633.91;5068046;28;20425;-94
2022/03/25 06:22:44;;;;;;;11.80;5.47;;;;;;;6.68;100.00;102641.69;5064422;28;20515;-93
2022/03/25 06:25:12;;;;;;;11.98;5.63;;;;;;;6.77;100.00;102649.59;5063542;28;20048;-94
2022/03/25 06:28:07;;;;;;;11.88;5.43;;;;;;;6.60;100.00;102618.19;5069985;28;20071;-94
2022/03/25 06:30:39;;;;;;;10.50;4.72;;;;;;;7.01;100.00;102656.75;5062733;28;20048;-94
2022/03/25 06:33:09;;;;;;;14.15;5.88;;;;;;;6.99;100.00;102660.19;5068545;28;20110;-94
2022/03/25 06:35:38;;;;;;;14.05;5.63;;;;;;;6.80;100.00;102633.13;5066499;28;20449;-94
2022/03/25 06:38:07;;;;;;;11.98;5.10;;;;;;;6.93;100.00;102675.78;5055796;28;20053;-94
2022/03/25 06:40:34;;;;;;;11.57;4.97;;;;;;;6.97;100.00;102661.91;5073513;28;20052;-95
2022/03/25 06:43:01;;;;;;;11.63;5.90;;;;;;;7.15;100.00;102685.50;5068734;28;20056;-94
2022/03/25 06:45:29;;;;;;;11.00;4.90;;;;;;;7.18;100.00;102676.84;5058461;28;20457;-95
2022/03/25 06:47:57;;;;;;;12.65;6.05;;;;;;;7.28;100.00;102696.91;5064165;28;20501;-94
2022/03/25 06:50:25;;;;;;;11.68;5.50;;;;;;;7.37;100.00;102704.78;5073572;28;20548;-95
2022/03/25 06:52:52;;;;;;;14.55;6.45;;;;;;;7.26;100.00;102690.81;5071503;28;20410;-94
2022/03/25 06:55:19;;;;;;;12.05;6.18;;;;;;;7.43;100.00;102705.69;5061674;28;20045;-95
2022/03/25 06:57:49;;;;;;;13.95;6.97;;;;;;;7.43;100.00;102709.16;5074750;28;20055;-95
2022/03/25 07:00:18;;;;;;;11.88;5.32;;;;;;;8.27;100.00;102697.41;5068204;28;20048;-94
2022/03/25 07:02:45;;;;;;;12.00;5.63;;;;;;;9.04;100.00;102666.22;5069986;28;20060;-95
2022/03/25 07:05:15;;;;;;;12.85;6.80;;;;;;;8.79;100.00;102619.22;5075330;28;20082;-95
2022/03/25 07:07:43;;;;;;;12.75;6.32;;;;;;;9.60;100.00;102672.25;5076698;28;20067;-95
2022/03/25 07:10:19;;;;;;;17.95;8.18;;;;;;;9.60;100.00;102667.91;5072989;28;20052;-92
2022/03/25 07:12:46;;;;;;;13.95;6.43;;;;;;;9.65;100.00;102647.84;5076312;28;20055;-93
2022/03/25 07:15:13;;;;;;;15.60;6.82;;;;;;;9.25;100.00;102641.81;5063071;28;20040;-90
2022/03/25 07:17:43;;;;;;;14.55;6.63;;;;;;;9.09;100.00;102643.59;5072650;28;20054;-91
2022/03/25 07:20:15;;;;;;;14.70;7.10;;;;;;;9.95;100.00;102661.69;5064983;28;20057;-90
2022/03/25 07:22:47;;;;;;;12.52;5.85;;;;;;;10.49;100.00;102658.78;5065446;28;20170;-88
2022/03/25 07:25:15;;;;;;;11.95;5.43;;;;;;;10.44;100.00;102657.94;5072611;28;20045;-91
2022/03/25 07:27:44;;;;;;;12.23;5.97;;;;;;;10.80;100.00;102663.81;5066888;28;20055;-91
2022/03/25 07:30:13;;;;;;;16.25;6.70;;;;;;;10.60;100.00;102622.91;5056562;28;20111;-91
2022/03/25 07:32:41;;;;;;;10.38;5.00;;;;;;;10.84;100.00;102621.00;5062351;28;20082;-91
2022/03/25 07:35:09;;;;;;;10.43;4.75;;;;;;;11.25;100.00;102635.47;5071963;28;20095;-91
2022/03/25 07:37:41;;;;;;;10.02;4.53;;;;;;;11.96;100.00;102660.94;5072143;28;20064;-91
2022/03/25 07:40:09;;;;;;;11.27;5.20;;;;;;;11.80;100.00;102669.84;5070676;28;20522;-91
2022/03/25 07:42:38;;;;;;;9.98;4.75;;;;;;;11.82;100.00;102645.31;5073999;28;20479;-91
2022/03/25 07:45:10;;;;;;;10.98;4.97;;;;;;;12.08;100.00;102668.66;5069542;28;20060;-92
2022/03/25 07:47:44;;;;;;;12.73;6.15;;;;;;;12.59;100.00;102662.69;5062898;28;20174;-91
2022/03/25 07:50:12;;;;;;;9.65;4.68;;;;;;;12.93;100.00;102659.50;5070337;28;20079;-92
2022/03/25 07:52:40;;;;;;;11.18;5.55;;;;;;;12.71;100.00;102658.97;5067393;28;20053;-91
2022/03/25 07:55:09;;;;;;;9.73;4.32;;;;;;;12.87;100.00;102664.84;5070993;28;20049;-90
2022/03/25 07:57:38;;;;;;;9.80;4.60;;;;;;;12.97;100.00;102661.19;5067840;28;20045;-90
2022/03/25 08:00:13;;;;;;;11.35;5.53;;;;;;;13.24;100.00;102674.75;5074417;28;20044;-90
2022/03/25 08:02:42;;;;;;;12.70;5.18;;;;;;;13.46;100.00;102657.72;5064714;28;20064;-90
2022/03/25 08:05:10;;;;;;;11.68;3.92;;;;;;;13.55;100.00;102647.91;5063414;28;20049;-89
2022/03/25 08:07:44;;;;;;;10.93;4.13;;;;;;;14.27;100.00;102671.84;5063500;28;20049;-90
2022/03/25 08:10:11;;;;;;;10.98;3.60;;;;;;;13.83;100.00;102653.50;5077233;28;20025;-90
2022/03/25 08:12:38;;;;;;;8.80;3.58;;;;;;;13.73;100.00;102671.22;5074084;28;20043;-91
2022/03/25 08:15:06;;;;;;;8.68;3.42;;;;;;;14.04;100.00;102667.94;5076228;28;20044;-90
2022/03/25 08:17:55;;;;;;;8.85;3.33;;;;;;;13.84;100.00;102663.09;5075631;28;20067;-90
2022/03/25 08:20:42;;;;;;;10.80;3.47;;;;;;;13.90;100.00;102665.63;5076538;28;20056;-88
2022/03/25 08:23:12;;;;;;;8.02;2.97;;;;;;;14.16;100.00;102687.91;5075139;28;20052;-90
2022/03/25 08:28:25;;;;;;;10.80;4.20;;;;;;;14.50;100.00;102659.03;5077000;28;20056;-91
2022/03/25 08:30:52;;;;;;;8.10;3.60;;;;;;;14.59;100.00;102664.13;5077177;28;20055;-89
2022/03/25 08:33:19;;;;;;;9.52;3.63;;;;;;;14.84;100.00;102675.81;5074018;28;20029;-90
2022/03/25 08:35:47;;;;;;;8.35;3.03;;;;;;;14.86;100.00;102659.06;5074233;28;20059;-90
2022/03/25 08:38:14;;;;;;;9.50;2.70;;;;;;;15.09;100.00;102669.03;5075217;28;20056;-90
2022/03/25 08:40:41;;;;;;;8.40;3.22;;;;;;;15.37;100.00;102650.69;5074824;28;20045;-91
2022/03/25 08:43:28;;;;;;;10.20;3.85;;;;;;;14.65;99.32;102672.78;5074525;28;20052;-91
2022/03/25 08:45:55;;;;;;;22.88;5.72;;;;;;;14.36;100.00;102667.25;5076791;28;20045;-91
2022/03/25 08:48:22;;;;;;;9.95;3.40;;;;;;;14.97;100.00;102678.13;5075567;28;20091;-91
2022/03/25 08:50:49;;;;;;;11.70;3.95;;;;;;;15.23;100.00;102675.72;5076338;28;20214;-91
2022/03/25 08:53:17;;;;;;;8.00;3.35;;;;;;;15.26;98.04;102671.22;5075926;28;20048;-91
2022/03/25 08:55:43;;;;;;;9.93;3.80;;;;;;;15.13;99.20;102667.19;5075532;28;20044;-91
2022/03/25 08:58:11;;;;;;;9.70;3.17;;;;;;;15.26;100.00;102647.47;5072338;28;20055;-90
2022/03/25 09:00:38;;;;;;;9.35;2.90;;;;;;;15.61;97.28;102650.91;5067360;28;20080;-90
2022/03/25 09:03:05;;;;;;;8.32;2.88;;;;;;;15.16;94.90;102651.28;5075668;28;20094;-90
2022/03/25 09:05:33;;;;;;;9.15;2.88;;;;;;;14.91;96.79;102644.00;5076520;28;20024;-90
2022/03/25 09:08:00;;;;;;;8.95;2.80;;;;;;;15.18;98.02;102657.38;5076509;28;20044;-91
2022/03/25 09:10:27;;;;;;;9.40;2.70;;;;;;;15.43;92.44;102702.44;5075618;28;20135;-90
2022/03/25 09:12:53;;;;;;;9.35;2.70;;;;;;;15.46;93.76;102669.84;5073773;28;20132;-87
2022/03/25 09:15:22;;;;;;;7.32;2.47;;;;;;;15.50;93.82;102656.50;5075703;28;20127;-90
2022/03/25 09:17:49;;;;;;;6.63;2.40;;;;;;;15.42;91.64;102692.78;5075012;28;20055;-88
2022/03/25 09:20:16;;;;;;;7.72;2.60;;;;;;;15.48;92.03;102691.78;5070209;28;20139;-88
2022/03/25 09:22:43;;;;;;;6.15;2.15;;;;;;;15.17;91.01;102655.63;5064537;28;21080;-88
2022/03/25 09:25:11;;;;;;;5.95;2.00;;;;;;;15.73;92.05;102687.53;5075454;28;20044;-87
2022/03/25 09:27:39;;;;;;;7.53;2.60;;;;;;;16.01;92.76;102707.06;5073538;28;20461;-88
2022/03/25 09:30:09;;;;;;;6.55;2.38;;;;;;;15.86;92.15;102703.06;5073966;28;20135;-87
2022/03/25 09:32:55;;;;;;;7.53;2.45;;;;;;;15.78;89.25;102690.09;5073299;28;20071;-88
2022/03/25 09:35:23;;;;;;;5.68;2.00;;;;;;;16.12;91.96;102691.75;5073744;28;20108;-87
2022/03/25 09:37:51;;;;;;;6.65;2.05;;;;;;;16.10;89.45;102694.44;5055926;28;20080;-89
2022/03/25 09:40:22;;;;;;;9.40;2.72;;;;;;;15.40;92.08;102702.53;5054052;28;20051;-89
2022/03/25 09:42:51;;;;;;;8.57;1.95;;;;;;;15.58;91.13;102690.59;5065834;28;20059;-90
2022/03/25 09:45:20;;;;;;;9.70;2.35;;;;;;;15.74;87.75;102702.53;5073802;28;20045;-89
2022/03/25 09:47:48;;;;;;;6.82;2.13;;;;;;;15.57;87.80;102696.81;5080486;28;20054;-89
2022/03/25 09:50:18;;;;;;;9.23;2.08;;;;;;;14.84;85.97;102647.69;5074193;28;20062;-89
2022/03/25 09:52:45;;;;;;;6.50;1.92;;;;;;;15.75;86.19;102714.81;5075300;28;20486;-91
2022/03/25 09:55:33;;;;;;;7.63;1.90;;;;;;;15.63;87.30;102709.81;5054615;28;20051;-89
2022/03/25 09:58:00;;;;;;;8.10;2.10;;;;;;;16.06;85.79;102697.19;5070070;28;20048;-88
2022/03/25 10:00:28;;;;;;;8.05;1.98;;;;;;;16.14;82.87;102703.13;5074324;28;20048;-87
2022/03/25 10:02:55;;;;;;;5.38;1.75;;;;;;;15.90;82.74;102687.09;5072972;28;20053;-89
2022/03/25 10:05:22;;;;;;;7.80;1.75;;;;;;;16.52;79.89;102698.47;5069803;28;20076;-88
2022/03/25 10:07:57;;;;;;;6.53;2.28;;;;;;;16.81;80.15;102675.50;5057762;28;20120;-89
2022/03/25 10:10:28;;;;;;;6.57;2.08;;;;;;;16.88;79.44;102698.22;5072746;28;20506;-89
2022/03/25 10:13:00;;;;;;;5.32;1.90;;;;;;;16.28;78.01;102665.72;5074592;28;20045;-88
2022/03/25 10:15:32;;;;;;;5.53;1.73;;;;;;;16.30;77.88;102690.31;5073834;28;20083;-88
2022/03/25 10:18:01;;;;;;;4.82;1.70;;;;;;;16.30;75.47;102688.53;5072302;28;20090;-88
2022/03/25 10:20:41;;;;;;;5.97;1.70;;;;;;;16.54;73.82;102691.34;5072266;28;20053;-88
2022/03/25 10:23:17;;;;;;;7.22;2.30;;;;;;;15.93;75.50;102699.34;5067327;28;20053;-89
2022/03/25 10:25:47;;;;;;;7.32;2.05;;;;;;;16.43;75.09;102681.13;5070439;28;20044;-90
2022/03/25 10:28:28;;;;;;;8.90;2.00;;;;;;;16.11;80.27;102676.78;5069386;28;20051;-90
2022/03/25 10:30:57;;;;;;;7.38;2.28;;;;;;;16.13;80.75;102686.44;5073335;28;20048;-91
2022/03/25 10:33:34;;;;;;;7.57;2.00;;;;;;;16.16;79.84;102671.38;5073308;28;20397;-91
2022/03/25 10:36:09;;;;;;;6.25;2.15;;;;;;;16.69;78.52;102669.69;5072620;28;20044;-88
2022/03/25 10:38:42;;;;;;;7.10;2.33;;;;;;;17.06;73.52;102675.56;5071501;28;20149;-87
2022/03/25 10:41:11;;;;;;;5.70;1.90;;;;;;;17.52;75.42;102679.25;5071916;28;20474;-87
2022/03/25 10:43:56;;;;;;;6.20;1.90;;;;;;;16.28;74.50;102677.16;5065360;28;20493;-87
2022/03/25 10:46:30;;;;;;;6.40;2.20;;;;;;;16.63;72.63;102674.34;5066506;28;20079;-88
2022/03/25 10:48:58;;;;;;;7.32;1.90;;;;;;;16.87;72.68;102664.72;5071127;28;20051;-87
2022/03/25 10:51:25;;;;;;;5.63;1.70;;;;;;;17.04;69.94;102659.75;5070254;28;20091;-87
2022/03/25 10:54:01;;;;;;;5.10;1.83;;;;;;;17.09;72.34;102659.59;5065076;28;20052;-87
2022/03/25 10:56:30;;;;;;;6.30;1.90;;;;;;;16.82;73.91;102679.84;5068200;28;20032;-88
2022/03/25 10:58:57;;;;;;;7.00;2.03;;;;;;;17.28;74.27;102673.03;5055536;28;20094;-87
2022/03/25 11:01:24;;;;;;;8.50;2.10;;;;;;;17.05;74.97;102661.47;5067779;28;20072;-87
2022/03/25 11:03:52;;;;;;;6.20;1.70;;;;;;;16.90;72.97;102648.75;5071563;28;20472;-88
2022/03/25 11:06:20;;;;;;;6.65;2.40;;;;;;;16.88;74.47;102658.53;5072164;28;20044;-87
2022/03/25 11:08:47;;;;;;;9.18;2.80;;;;;;;16.26;77.21;102665.75;5068226;28;20055;-88
2022/03/25 11:11:18;;;;;;;7.43;2.42;;;;;;;16.50;78.96;102660.59;5071583;28;20059;-87
2022/03/25 11:13:47;;;;;;;7.32;2.15;;;;;;;16.89;78.06;102649.66;5070106;28;20070;-87
2022/03/25 11:16:16;;;;;;;4.95;1.88;;;;;;;17.17;76.38;102654.88;5053252;28;20067;-88
2022/03/25 11:18:44;;;;;;;6.32;2.40;;;;;;;16.37;79.05;102659.28;5053119;28;20132;-88
2022/03/25 11:21:12;;;;;;;9.95;3.40;;;;;;;16.75;81.17;102652.78;5051614;28;20413;-87
2022/03/25 11:23:44;;;;;;;11.55;2.90;;;;;;;16.46;80.81;102651.91;5066840;28;20051;-88
2022/03/25 11:26:14;;;;;;;10.77;3.60;;;;;;;16.16;81.52;102651.09;5069595;28;20044;-88